Time;durP1;ratioP1;P1;durP2;ratioP2;P2;SDS_P1;SDS_P2;PMS_P1;PMS_P2;Temp;Humidity;BMP_temperature;BMP_pressure;BME280_temperature;BME280_humidity;BME280_pressure;Samples;Min_cycle;Max_cycle;Signal;HPM_P1;HPM_P2
2022/02/12 00:05:06;;;;;;;;;;;;;;;;;;;;;
2022/02/12 00:10:09;;;;;;;2.20;1.30;;;;;;;0.31;84.01;100923.81;207018;1316;141431;-79
2022/02/12 00:15:12;;;;;;;6.10;1.90;;;;;;;0.23;83.92;100933.39;207357;1317;142740;-73
2022/02/12 00:20:16;;;;;;;3.80;2.40;;;;;;;0.15;84.08;100935.17;207894;1317;141708;-69
2022/02/12 00:25:19;;;;;;;8.70;2.50;;;;;;;0.12;83.80;100946.27;207340;1316;142271;-70
2022/02/12 00:30:28;;;;;;;5.20;2.90;;;;;;;0.08;84.12;100952.23;207719;1316;141917;-75
2022/02/12 00:35:32;;;;;;;4.40;3.60;;;;;;;0.03;84.12;100973.99;207366;1317;162242;-67
2022/02/12 00:40:35;;;;;;;4.50;2.60;;;;;;;-0.06;84.12;100984.73;207230;1318;140608;-72
2022/02/12 00:45:54;;;;;;;;;;;;;;;;;;;;;
2022/02/12 00:51:00;;;;;;;6.30;2.90;;;;;;;-0.13;84.35;101018.01;207534;1317;140853;-78
2022/02/12 00:56:04;;;;;;;20.90;11.20;;;;;;;-0.09;84.47;101024.12;208124;1317;141955;-73
2022/02/12 01:01:12;;;;;;;10.00;4.00;;;;;;;-0.03;84.61;101032.69;208161;1318;141288;-74
2022/02/12 01:06:25;;;;;;;9.70;4.40;;;;;;;0.04;84.57;101039.44;207847;1315;142144;-73
2022/02/12 01:11:37;;;;;;;5.90;2.70;;;;;;;0.12;84.51;101048.65;208086;1316;140591;-79
2022/02/12 01:16:43;;;;;;;4.90;3.20;;;;;;;0.21;84.75;101058.02;208844;1320;139628;-78
2022/02/12 01:21:48;;;;;;;6.70;3.20;;;;;;;0.24;84.52;101062.46;207105;1316;139549;-76
2022/02/12 01:26:56;;;;;;;4.50;2.30;;;;;;;0.20;84.08;101060.70;208835;1316;139091;-73
2022/02/12 01:32:04;;;;;;;4.50;2.50;;;;;;;0.12;83.86;101068.80;208378;1315;141917;-80
2022/02/12 01:37:19;;;;;;;6.70;2.40;;;;;;;0.02;84.00;101075.92;207944;1317;142529;-75
2022/02/12 01:42:29;;;;;;;6.70;2.90;;;;;;;-0.06;84.14;101090.43;209182;1317;140778;-75
2022/02/12 01:47:32;;;;;;;9.50;3.20;;;;;;;-0.10;83.98;101093.23;208957;1315;140415;-80
2022/02/12 01:52:44;;;;;;;4.70;3.00;;;;;;;-0.12;83.80;101096.39;208652;1313;139864;-76
2022/02/12 01:57:49;;;;;;;7.60;3.10;;;;;;;-0.18;84.00;101104.91;207742;1313;139571;-84
2022/02/12 02:02:55;;;;;;;6.50;2.70;;;;;;;-0.22;84.15;101114.05;208091;1317;143351;-77
2022/02/12 02:08:00;;;;;;;2.80;2.10;;;;;;;-0.28;83.99;101126.08;207346;1317;142245;-76
2022/02/12 02:13:03;;;;;;;5.20;2.70;;;;;;;-0.34;83.89;101136.77;207640;1317;140954;-67
2022/02/12 02:18:09;;;;;;;4.60;2.20;;;;;;;-0.40;83.84;101143.54;207285;1316;141132;-76
2022/02/12 02:23:53;;;;;;;6.10;3.20;;;;;;;-0.43;83.91;101156.67;207670;1316;140946;-76
2022/02/12 02:29:02;;;;;;;6.70;2.50;;;;;;;-0.44;84.18;101168.11;207617;1317;140323;-79
2022/02/12 02:34:15;;;;;;;3.10;2.30;;;;;;;-0.46;84.01;101176.89;207028;1317;139216;-78
2022/02/12 02:39:17;;;;;;;10.20;4.50;;;;;;;-0.54;83.98;101186.06;207879;1314;140001;-69
2022/02/12 02:44:21;;;;;;;7.10;3.80;;;;;;;-0.60;83.99;101196.56;207189;1316;142975;-70
2022/02/12 02:49:23;;;;;;;12.20;3.90;;;;;;;-0.64;84.11;101209.84;207208;1317;140992;-76
2022/02/12 02:59:48;;;;;;;7.60;3.70;;;;;;;-0.70;83.88;101219.00;207660;1316;140215;-72
2022/02/12 03:04:50;;;;;;;7.80;4.40;;;;;;;-0.73;84.01;101228.86;208084;1317;398381;-70
2022/02/12 03:10:00;;;;;;;4.80;3.60;;;;;;;-0.76;84.01;101240.25;207563;1316;140962;-75
2022/02/12 03:15:05;;;;;;;4.40;3.30;;;;;;;-0.81;84.14;101250.31;207546;1316;139245;-77
2022/02/12 03:20:11;;;;;;;10.10;3.30;;;;;;;-0.87;83.98;101253.36;207495;1316;140088;-79
2022/02/12 03:25:13;;;;;;;8.90;4.70;;;;;;;-0.92;84.04;101258.31;208323;1318;140830;-82
2022/02/12 03:30:18;;;;;;;5.10;2.70;;;;;;;-0.92;83.80;101271.69;208672;1317;140974;-78
2022/02/12 03:35:27;;;;;;;5.10;2.70;;;;;;;-0.90;84.00;101280.91;208727;1317;140761;-76
2022/02/12 03:40:39;;;;;;;15.70;6.10;;;;;;;-0.88;83.92;101292.70;208660;1316;141096;-81
2022/02/12 03:45:44;;;;;;;4.50;2.50;;;;;;;-0.87;84.27;101302.27;207797;1317;139628;-80
2022/02/12 03:50:55;;;;;;;11.10;4.00;;;;;;;-0.89;83.99;101313.63;207451;1318;140151;-84
2022/02/12 03:56:05;;;;;;;8.20;2.60;;;;;;;-0.93;83.97;101318.45;207941;1316;140812;-71
2022/02/12 04:01:12;;;;;;;9.40;2.80;;;;;;;-0.96;84.03;101319.59;207290;1317;141289;-68
2022/02/12 04:06:16;;;;;;;11.30;3.70;;;;;;;-0.98;84.03;101326.70;208361;1317;140823;-69
2022/02/12 04:11:20;;;;;;;8.70;3.20;;;;;;;-1.01;83.74;101337.77;206863;1317;140513;-68
2022/02/12 04:16:29;;;;;;;7.20;3.90;;;;;;;-1.03;83.95;101349.63;208289;1315;139950;-69
2022/02/12 04:21:32;;;;;;;10.70;3.30;;;;;;;-1.07;83.94;101351.17;207729;1316;140078;-78
2022/02/12 04:26:35;;;;;;;7.20;3.00;;;;;;;-1.14;83.71;101350.17;207052;1316;140212;-79
2022/02/12 04:31:49;;;;;;;8.30;3.10;;;;;;;-1.19;83.85;101355.90;208192;1317;142303;-77
2022/02/12 04:36:53;;;;;;;4.90;2.50;;;;;;;-1.20;83.92;101361.61;207232;1316;141009;-71
2022/02/12 04:42:13;;;;;;;7.20;3.10;;;;;;;-1.22;83.90;101372.39;206995;1316;139778;-71
2022/02/12 04:47:21;;;;;;;5.60;2.70;;;;;;;-1.28;83.94;101384.08;207079;1316;139621;-69
2022/02/12 04:52:36;;;;;;;7.10;3.20;;;;;;;-1.35;83.71;101388.95;207461;1313;141033;-68
2022/02/12 04:57:51;;;;;;;6.10;3.60;;;;;;;-1.41;83.79;101394.75;208157;1316;140061;-72
2022/02/12 05:02:54;;;;;;;18.50;7.90;;;;;;;-1.42;83.78;101398.88;207676;1317;140698;-72
2022/02/12 05:07:59;;;;;;;16.40;6.20;;;;;;;-1.49;83.73;101402.67;207307;1315;141804;-69
2022/02/12 05:13:04;;;;;;;17.80;8.30;;;;;;;-1.53;83.82;101410.03;208305;1316;140788;-71
2022/02/12 05:18:09;;;;;;;13.60;5.60;;;;;;;-1.56;83.86;101411.32;208062;1316;140470;-72
2022/02/12 05:23:14;;;;;;;14.40;6.20;;;;;;;-1.58;83.85;101414.73;207592;1316;141319;-73
2022/02/12 05:28:36;;;;;;;13.30;6.10;;;;;;;-1.61;83.68;101417.94;209048;1316;140447;-71
2022/02/12 05:33:42;;;;;;;9.00;4.10;;;;;;;-1.63;83.63;101417.61;208073;1315;142401;-75
2022/02/12 05:38:57;;;;;;;14.20;4.50;;;;;;;-1.65;83.78;101419.48;207564;1316;140472;-72
2022/02/12 05:44:04;;;;;;;6.70;3.30;;;;;;;-1.70;83.57;101422.63;208972;1316;140676;-69
2022/02/12 05:49:28;;;;;;;7.90;3.40;;;;;;;-1.81;83.38;101431.59;208570;1317;140120;-70
2022/02/12 05:54:44;;;;;;;6.90;3.10;;;;;;;-1.89;83.19;101436.29;208506;1317;140697;-73
2022/02/12 05:59:57;;;;;;;5.50;3.30;;;;;;;-1.92;83.27;101436.96;209210;1316;142113;-73
2022/02/12 06:05:03;;;;;;;6.10;3.60;;;;;;;-1.92;83.39;101445.21;209088;1316;140188;-76
2022/02/12 06:10:07;;;;;;;7.30;2.90;;;;;;;-1.94;83.30;101448.78;209198;1316;140613;-72
2022/02/12 06:15:15;;;;;;;6.80;3.70;;;;;;;-1.94;83.43;101450.38;208461;1316;140903;-70
2022/02/12 06:20:18;;;;;;;6.30;3.40;;;;;;;-1.96;83.12;101459.09;208041;1316;143205;-71
2022/02/12 06:25:21;;;;;;;5.40;3.20;;;;;;;-2.00;82.95;101467.70;207197;1316;140153;-70
2022/02/12 06:30:30;;;;;;;12.10;5.40;;;;;;;-1.96;83.30;101479.83;207801;1316;140793;-73
2022/02/12 06:35:47;;;;;;;15.10;7.30;;;;;;;-1.93;83.51;101476.80;207279;1316;140194;-75
2022/02/12 06:41:00;;;;;;;;;;;;;;;;;;;;;
2022/02/12 06:46:14;;;;;;;8.40;3.60;;;;;;;-1.87;83.68;101493.47;207817;1317;139855;-71
2022/02/12 06:51:21;;;;;;;12.50;4.20;;;;;;;-1.81;83.79;101495.91;206920;1316;140143;-68
2022/02/12 06:56:24;;;;;;;8.10;4.90;;;;;;;-1.67;84.01;101503.64;207786;1316;141771;-69
2022/02/12 07:01:28;;;;;;;13.80;5.20;;;;;;;-1.49;84.18;101512.20;208471;1316;140140;-70
2022/02/12 07:06:36;;;;;;;7.40;4.20;;;;;;;-0.91;84.07;101518.84;207140;1317;139734;-70
2022/02/12 07:11:44;;;;;;;6.50;4.10;;;;;;;0.08;83.91;101517.82;207011;1316;139691;-69
2022/02/12 07:17:19;;;;;;;7.00;5.00;;;;;;;1.16;83.49;101525.23;207590;1316;140109;-69
2022/02/12 07:22:44;;;;;;;7.30;5.10;;;;;;;2.38;82.49;101529.08;208316;1317;139356;-70
2022/02/12 07:27:57;;;;;;;5.30;4.10;;;;;;;3.45;81.32;101531.27;207608;1314;150968;-71
2022/02/12 07:33:09;;;;;;;9.90;5.30;;;;;;;4.13;80.30;101533.86;207785;1316;140658;-69
2022/02/12 07:38:13;;;;;;;9.60;5.60;;;;;;;4.58;79.59;101534.16;207240;1316;140189;-68
2022/02/12 07:43:21;;;;;;;11.20;6.80;;;;;;;4.91;79.05;101543.14;208038;1316;139486;-68
2022/02/12 07:48:28;;;;;;;17.00;12.10;;;;;;;4.93;77.84;101546.03;207131;1317;141712;-73
2022/02/12 07:53:47;;;;;;;5.10;3.40;;;;;;;4.70;77.24;101552.35;207608;1317;141171;-72
2022/02/12 07:58:50;;;;;;;10.30;5.40;;;;;;;4.48;77.03;101561.98;207812;1318;139068;-72
2022/02/12 08:04:00;;;;;;;6.90;4.70;;;;;;;4.29;76.93;101573.63;207881;1315;141101;-70
2022/02/12 08:09:16;;;;;;;11.60;4.70;;;;;;;4.12;76.88;101585.15;208553;1315;140211;-72
2022/02/12 08:14:33;;;;;;;6.30;4.10;;;;;;;3.76;76.45;101594.79;209483;1316;141110;-72
2022/02/12 08:19:49;;;;;;;9.20;3.40;;;;;;;3.33;76.38;101604.25;209279;1317;140353;-72
2022/02/12 08:25:04;;;;;;;5.50;3.10;;;;;;;3.01;76.70;101609.69;208440;1319;139756;-75
2022/02/12 08:30:08;;;;;;;8.90;4.50;;;;;;;3.05;77.21;101605.66;209247;1316;139267;-80
2022/02/12 08:35:13;;;;;;;8.80;4.70;;;;;;;3.18;77.13;101610.80;207698;1315;140907;-73
2022/02/12 08:40:51;;;;;;;12.30;6.50;;;;;;;3.16;77.17;101617.09;207909;1315;140293;-75
2022/02/12 08:45:58;;;;;;;15.10;6.80;;;;;;;3.12;76.99;101632.94;207378;1316;140659;-74
2022/02/12 08:51:11;;;;;;;;;;;;;;;;;;;;;
2022/02/12 08:56:23;;;;;;;12.50;6.60;;;;;;;2.73;76.81;101651.09;207923;1317;141737;-79
2022/02/12 09:01:37;;;;;;;12.20;5.80;;;;;;;2.89;77.48;101651.58;207177;1314;139708;-77
2022/02/12 09:06:47;;;;;;;10.50;7.60;;;;;;;3.14;77.68;101653.89;207689;1316;139629;-77
2022/02/12 09:11:53;;;;;;;12.60;7.70;;;;;;;3.36;77.11;101659.58;207591;1316;140283;-75
2022/02/12 09:17:00;;;;;;;9.00;7.40;;;;;;;3.36;76.97;101672.34;207927;1315;142102;-80
2022/02/12 09:22:04;;;;;;;11.30;8.40;;;;;;;3.28;77.10;101677.83;208662;1317;139472;-82
2022/02/12 09:27:13;;;;;;;12.30;8.30;;;;;;;3.37;76.69;101684.06;207688;1316;140422;-80
2022/02/12 09:32:25;;;;;;;17.50;10.10;;;;;;;3.30;76.53;101688.36;208252;1316;141044;-82
2022/02/12 09:37:54;;;;;;;12.70;8.90;;;;;;;3.47;76.90;101692.98;208153;1316;141042;-74
2022/02/12 09:43:14;;;;;;;11.10;8.80;;;;;;;3.58;76.33;101698.06;208422;1313;140793;-76
2022/02/12 09:48:20;;;;;;;14.90;9.80;;;;;;;3.55;75.98;101693.96;208027;1317;141334;-76
2022/02/12 09:53:25;;;;;;;13.60;8.90;;;;;;;3.45;75.79;101697.09;207835;1316;141409;-77
2022/02/12 09:58:32;;;;;;;14.50;10.50;;;;;;;3.21;75.70;101699.91;206895;1316;140928;-81
2022/02/12 10:03:39;;;;;;;11.70;9.20;;;;;;;3.21;76.18;101700.52;208708;1320;141345;-82
2022/02/12 10:09:13;;;;;;;11.80;8.30;;;;;;;3.10;76.19;101697.57;208034;1314;142131;-79
2022/02/12 10:14:19;;;;;;;16.50;7.80;;;;;;;3.06;76.33;101695.33;206883;1317;141017;-77
2022/02/12 10:19:47;;;;;;;;;;;;;;;;;;;;;
2022/02/12 10:25:15;;;;;;;20.20;10.50;;;;;;;3.39;76.16;101692.66;209378;1316;141126;-86
2022/02/12 10:30:21;;;;;;;16.50;10.00;;;;;;;3.78;76.34;101682.17;207323;1316;141208;-88
2022/02/12 10:36:01;;;;;;;15.20;9.70;;;;;;;3.86;75.54;101679.82;207695;1317;140644;-76
2022/02/12 10:41:55;;;;;;;;;;;;;;;;;;;;;
2022/02/12 10:47:46;;;;;;;8.20;7.10;;;;;;;3.86;75.90;101682.84;208193;1316;140516;-83
2022/02/12 10:52:55;;;;;;;12.70;10.40;;;;;;;4.07;75.77;101687.19;207196;1317;140180;-77
2022/02/12 10:58:41;;;;;;;21.00;10.40;;;;;;;4.02;75.27;101685.89;207590;1317;140957;-78
2022/02/12 11:03:44;;;;;;;13.20;8.80;;;;;;;4.30;75.44;101683.08;206746;1315;782630;-76
2022/02/12 11:08:50;;;;;;;12.90;8.90;;;;;;;4.45;75.22;101680.23;207632;1316;140555;-77
2022/02/12 11:14:13;;;;;;;15.70;9.50;;;;;;;4.51;75.24;101673.12;208366;1316;140300;-83
2022/02/12 11:19:30;;;;;;;19.70;12.10;;;;;;;4.41;74.84;101669.36;206945;1316;141333;-69
2022/02/12 11:24:44;;;;;;;17.20;10.90;;;;;;;4.51;75.04;101669.23;208415;1315;141704;-68
2022/02/12 11:30:18;;;;;;;18.30;11.00;;;;;;;4.45;74.61;101669.27;208254;1316;141795;-74
2022/02/12 11:35:27;;;;;;;17.20;10.30;;;;;;;4.12;74.39;101666.77;207506;1316;140969;-72
2022/02/12 11:40:57;;;;;;;18.60;11.90;;;;;;;3.90;74.36;101664.39;208010;1314;139607;-71
2022/02/12 11:46:20;;;;;;;19.30;9.60;;;;;;;3.86;74.46;101659.13;207998;1316;225327;-80
2022/02/12 11:51:43;;;;;;;23.90;11.10;;;;;;;4.09;74.94;101662.51;206928;1316;140649;-80
2022/02/12 11:56:49;;;;;;;16.40;11.10;;;;;;;4.32;74.64;101661.20;208773;1316;141009;-81
2022/02/12 12:01:58;;;;;;;21.40;12.70;;;;;;;4.29;74.32;101657.07;208410;1321;140472;-82
2022/02/12 12:07:13;;;;;;;17.80;9.30;;;;;;;4.43;74.23;101651.13;207707;1316;141032;-79
2022/02/12 12:12:24;;;;;;;16.00;11.60;;;;;;;4.52;74.01;101640.27;209587;1316;142015;-77
2022/02/12 12:17:32;;;;;;;19.50;12.20;;;;;;;4.43;73.97;101631.44;208543;1316;141233;-88
2022/02/12 12:22:45;;;;;;;18.10;11.20;;;;;;;4.31;73.50;101629.45;207972;1316;140083;-86
2022/02/12 12:27:52;;;;;;;20.40;11.20;;;;;;;4.06;73.55;101633.40;208083;1316;140110;-86
2022/02/12 12:33:14;;;;;;;18.40;10.60;;;;;;;3.98;73.77;101625.75;209323;1317;140089;-77
2022/02/12 12:38:22;;;;;;;16.60;10.30;;;;;;;4.03;73.79;101624.75;208991;1316;141624;-79
2022/02/12 12:43:28;;;;;;;19.30;10.20;;;;;;;4.18;73.76;101620.85;208543;1316;141235;-77
2022/02/12 12:48:37;;;;;;;21.60;11.50;;;;;;;4.09;73.63;101629.06;208224;1324;140558;-77
2022/02/12 12:54:00;;;;;;;;;;;;;;;;;;;;;
2022/02/12 12:59:21;;;;;;;20.60;10.80;;;;;;;4.27;73.57;101612.90;207674;1316;140064;-79
2022/02/12 13:04:47;;;;;;;14.30;10.00;;;;;;;4.24;73.33;101612.31;207314;1316;140168;-73
2022/02/12 13:09:55;;;;;;;14.00;8.60;;;;;;;4.09;73.47;101603.22;207781;1316;140341;-82
2022/02/12 13:15:20;;;;;;;;;;;;;;;;;;;;;
2022/02/12 13:20:27;;;;;;;14.50;8.50;;;;;;;3.86;73.14;101595.06;207351;1315;141562;-74
2022/02/12 13:25:53;;;;;;;12.20;7.10;;;;;;;3.88;72.98;101579.04;207798;1316;140926;-77
2022/02/12 13:31:31;;;;;;;9.80;6.80;;;;;;;3.91;72.84;101575.95;207211;1317;140284;-79
2022/02/12 13:36:47;;;;;;;20.20;8.70;;;;;;;3.88;73.10;101575.04;207618;1316;140428;-76
2022/02/12 13:42:01;;;;;;;11.00;7.30;;;;;;;3.88;72.92;101569.87;208239;1316;140413;-81
2022/02/12 13:47:07;;;;;;;12.50;8.30;;;;;;;3.78;72.70;101565.96;208181;1317;139281;-79
2022/02/12 13:52:17;;;;;;;11.70;7.90;;;;;;;3.70;72.45;101561.35;207858;1316;140550;-73
2022/02/12 14:12:05;;;;;;;9.80;6.60;;;;;;;3.42;72.98;101556.14;206300;1358;656502;-78
2022/02/12 14:17:12;;;;;;;12.40;6.20;;;;;;;3.33;73.11;101554.05;205475;1328;140225;-76
2022/02/12 14:22:18;;;;;;;11.90;6.60;;;;;;;3.30;73.11;101545.73;206072;1324;327811;-74
2022/02/12 14:27:25;;;;;;;14.00;7.70;;;;;;;3.30;73.00;101544.84;207391;1327;139124;-78
2022/02/12 14:32:31;;;;;;;13.20;6.60;;;;;;;3.31;72.73;101546.12;206555;1324;228270;-83
2022/02/12 14:37:36;;;;;;;8.60;6.50;;;;;;;3.28;72.28;101539.55;206476;1326;139915;-84
2022/02/12 14:42:54;;;;;;;12.60;6.80;;;;;;;3.29;72.38;101532.14;206369;1328;139463;-84
2022/02/12 14:48:07;;;;;;;15.10;6.60;;;;;;;3.20;72.02;101525.52;207062;1326;140399;-78
2022/02/12 14:53:16;;;;;;;10.50;7.90;;;;;;;3.12;72.16;101525.65;206684;1327;140113;-81
2022/02/12 14:58:20;;;;;;;17.70;7.10;;;;;;;3.03;72.25;101526.96;207107;1327;139507;-83
2022/02/12 15:03:47;;;;;;;;;;;;;;;;;;;;;
2022/02/12 15:09:00;;;;;;;12.10;6.60;;;;;;;2.79;72.14;101511.09;206611;1327;139998;-86
2022/02/12 15:14:10;;;;;;;11.50;7.70;;;;;;;2.63;72.05;101496.64;205828;1325;140117;-74
2022/02/12 15:19:17;;;;;;;21.50;8.20;;;;;;;2.41;72.37;101487.23;205102;1326;140109;-79
2022/02/12 15:24:21;;;;;;;25.20;8.70;;;;;;;2.23;72.44;101479.23;205575;1326;140495;-81
2022/02/12 15:29:25;;;;;;;12.40;8.40;;;;;;;2.04;72.18;101469.39;205605;1329;139502;-75
2022/02/12 15:34:40;;;;;;;14.70;7.60;;;;;;;1.84;72.73;101461.33;205999;1327;139374;-79
2022/02/12 15:39:47;;;;;;;14.00;7.00;;;;;;;1.67;72.60;101451.99;204985;1326;138859;-68
2022/02/12 15:44:57;;;;;;;13.40;6.00;;;;;;;1.52;72.82;101455.09;205803;1327;138860;-81
2022/02/12 15:50:03;;;;;;;8.20;5.50;;;;;;;1.37;73.01;101458.30;205864;1327;139790;-72
2022/02/12 15:55:07;;;;;;;8.80;6.30;;;;;;;1.23;72.90;101450.26;206208;1326;139635;-78
2022/02/12 16:00:11;;;;;;;10.00;5.80;;;;;;;1.05;72.82;101452.31;206806;1325;140887;-72
2022/02/12 16:05:17;;;;;;;9.80;8.10;;;;;;;0.89;73.26;101444.08;206649;1326;141505;-76
2022/02/12 16:10:22;;;;;;;10.50;8.20;;;;;;;0.73;73.49;101437.77;206409;1325;139247;-75
2022/02/12 16:15:33;;;;;;;8.20;6.50;;;;;;;0.64;73.57;101439.49;207630;1323;236834;-77
2022/02/12 16:21:06;;;;;;;14.80;5.80;;;;;;;0.54;73.51;101436.90;206477;1322;138486;-75
2022/02/12 16:26:14;;;;;;;11.90;6.90;;;;;;;0.37;73.76;101433.90;207244;1324;138969;-84
2022/02/12 16:31:39;;;;;;;25.50;7.50;;;;;;;0.29;73.98;101421.67;206475;1322;140011;-79
2022/02/12 16:36:52;;;;;;;14.10;7.20;;;;;;;0.22;74.22;101413.54;207949;1322;140490;-75
2022/02/12 16:42:01;;;;;;;17.60;8.40;;;;;;;0.11;74.21;101413.74;207710;1323;142379;-76
2022/02/12 16:47:09;;;;;;;14.00;9.50;;;;;;;0.04;74.32;101406.81;207574;1322;140474;-79
2022/02/12 16:52:15;;;;;;;;;;;;;;;-0.06;74.55;101405.89;207872;1323;141955;-78
2022/02/12 16:57:35;;;;;;;22.80;9.60;;;;;;;-0.20;74.67;101403.67;208956;1323;126898;-77
2022/02/12 17:02:47;;;;;;;23.30;12.60;;;;;;;-0.22;75.10;101396.89;206480;1319;141224;-76
2022/02/12 17:07:56;;;;;;;22.50;11.90;;;;;;;-0.25;74.85;101391.86;207458;1321;142173;-75
2022/02/12 17:13:14;;;;;;;27.60;15.10;;;;;;;-0.31;75.10;101390.95;207627;1319;143347;-80
2022/02/12 17:18:18;;;;;;;;;;;;;;;-0.41;75.30;101386.16;207116;1319;140659;-77
2022/02/12 17:23:55;;;;;;;;;;;;;;;;;;;;;
2022/02/12 17:29:08;;;;;;;34.70;16.70;;;;;;;-0.67;75.71;101369.30;206878;1319;140222;-75
2022/02/12 17:34:17;;;;;;;39.80;21.90;;;;;;;-0.82;75.93;101370.45;207074;1318;142333;-76
2022/02/12 17:39:32;;;;;;;54.70;25.40;;;;;;;-0.99;75.90;101362.91;207355;1319;140328;-75
2022/02/12 17:44:40;;;;;;;69.00;32.50;;;;;;;-1.17;76.01;101355.61;207558;1319;150174;-81
2022/02/12 17:50:06;;;;;;;104.80;44.30;;;;;;;-1.28;76.33;101359.42;207360;1319;140755;-78
2022/02/12 17:55:13;;;;;;;94.90;39.70;;;;;;;-1.33;76.57;101366.30;207551;1319;140221;-78
2022/02/12 18:00:21;;;;;;;86.60;36.20;;;;;;;-1.40;76.76;101361.92;206991;1319;140664;-79
2022/02/12 18:05:29;;;;;;;58.00;26.60;;;;;;;-1.42;77.11;101356.83;207607;1319;139970;-78
2022/02/12 18:10:40;;;;;;;44.80;22.70;;;;;;;-1.38;77.51;101349.70;207458;1319;140609;-74
2022/02/12 18:15:50;;;;;;;39.10;20.00;;;;;;;-1.28;77.65;101350.40;207568;1319;140540;-77
2022/02/12 18:21:03;;;;;;;38.60;18.80;;;;;;;-1.24;77.57;101354.20;207432;1321;140106;-69
2022/02/12 18:26:15;;;;;;;37.60;20.50;;;;;;;-1.23;77.69;101346.34;207400;1319;140171;-76
2022/02/12 18:31:25;;;;;;;42.50;20.50;;;;;;;-1.18;77.82;101342.43;207586;1319;140878;-75
2022/02/12 18:36:31;;;;;;;44.10;19.80;;;;;;;-1.15;77.81;101335.55;207115;1319;142106;-73
2022/02/12 18:41:41;;;;;;;41.80;19.60;;;;;;;-1.12;77.78;101329.23;207710;1313;142033;-78
2022/02/12 18:46:46;;;;;;;34.20;14.70;;;;;;;-1.13;77.61;101323.86;208712;1313;142448;-68
2022/02/12 18:52:03;;;;;;;;;;;;;;;;;;;;;
2022/02/12 18:57:23;;;;;;;;;;;;;;;;;;;;;
2022/02/12 19:02:29;;;;;;;31.40;17.00;;;;;;;-1.14;77.54;101323.45;209041;1313;141163;-77
2022/02/12 19:07:39;;;;;;;33.50;16.80;;;;;;;-1.14;77.50;101313.10;209478;1314;141555;-79
2022/02/12 19:12:47;;;;;;;36.30;20.00;;;;;;;-1.20;77.38;101314.80;209562;1315;140090;-80
2022/02/12 19:17:55;;;;;;;35.00;18.80;;;;;;;-1.21;77.47;101315.98;209476;1313;141597;-72
2022/02/12 19:23:10;;;;;;;31.00;17.70;;;;;;;-1.20;77.54;101307.84;209602;1313;141385;-77
2022/02/12 19:28:16;;;;;;;38.30;18.60;;;;;;;-1.19;77.55;101305.49;207903;1313;143191;-76
2022/02/12 19:33:23;;;;;;;32.50;20.30;;;;;;;-1.20;77.50;101295.27;207281;1313;141321;-75
2022/02/12 19:38:28;;;;;;;36.30;18.70;;;;;;;-1.19;77.63;101287.34;208054;1315;141824;-71
2022/02/12 19:43:32;;;;;;;33.10;19.50;;;;;;;-1.20;77.72;101281.19;208495;1315;155156;-73
2022/02/12 19:48:38;;;;;;;38.40;18.80;;;;;;;-1.24;77.49;101281.14;206986;1315;142061;-79
2022/02/12 19:53:42;;;;;;;34.50;18.70;;;;;;;-1.27;77.56;101275.15;206989;1315;225800;-78
2022/02/12 19:58:47;;;;;;;34.60;16.90;;;;;;;-1.37;77.35;101272.44;207513;1314;140270;-83
2022/02/12 20:03:51;;;;;;;30.20;16.40;;;;;;;-1.49;77.58;101266.19;207439;1315;140280;-77
2022/02/12 20:08:58;;;;;;;31.00;16.00;;;;;;;-1.50;77.79;101270.42;208024;1314;141586;-77
2022/02/12 20:14:09;;;;;;;34.40;15.80;;;;;;;-1.53;77.64;101266.58;207418;1313;140086;-79
2022/02/12 20:19:17;;;;;;;28.30;14.70;;;;;;;-1.59;77.57;101264.73;207551;1315;141507;-81
2022/02/12 20:24:35;;;;;;;33.50;16.40;;;;;;;-1.65;77.71;101252.98;207543;1315;231094;-76
2022/02/12 20:29:42;;;;;;;25.90;15.70;;;;;;;-1.65;77.79;101244.33;207408;1314;142054;-76
2022/02/12 20:34:47;;;;;;;28.00;14.80;;;;;;;-1.60;77.88;101239.37;207994;1315;140318;-72
2022/02/12 20:39:55;;;;;;;29.10;15.20;;;;;;;-1.61;77.90;101227.22;207665;1315;140422;-78
2022/02/12 20:44:59;;;;;;;36.40;17.50;;;;;;;-1.65;77.62;101222.85;207349;1315;140177;-73
2022/02/12 20:50:05;;;;;;;34.00;16.20;;;;;;;-1.72;77.91;101216.23;207557;1315;140332;-70
2022/02/12 20:55:11;;;;;;;38.50;18.90;;;;;;;-1.76;77.71;101217.92;207245;1313;140443;-70
2022/02/12 21:00:16;;;;;;;38.70;19.50;;;;;;;-1.78;77.81;101208.82;207698;1315;140030;-74
2022/02/12 21:05:21;;;;;;;42.00;21.50;;;;;;;-1.80;77.70;101202.88;208891;1315;140170;-78
2022/02/12 21:10:29;;;;;;;45.20;21.20;;;;;;;-1.80;77.63;101191.40;209370;1315;141761;-78
2022/02/12 21:15:33;;;;;;;;;;;;;;;-1.82;77.58;101190.52;209442;1314;140526;-79
2022/02/12 21:20:51;;;;;;;42.30;20.10;;;;;;;-1.85;77.43;101196.86;210335;1315;127556;-79
2022/02/12 21:25:55;;;;;;;46.50;19.90;;;;;;;-1.85;77.42;101193.92;209126;1313;141057;-69
2022/02/12 21:31:06;;;;;;;47.60;19.10;;;;;;;-1.83;77.38;101193.92;208339;1315;140643;-79
2022/02/12 21:36:16;;;;;;;39.50;19.90;;;;;;;-1.80;77.31;101184.79;209297;1314;142344;-78
2022/02/12 21:41:20;;;;;;;35.70;18.50;;;;;;;-1.79;77.22;101186.13;209793;1314;141221;-81
2022/02/12 21:46:46;;;;;;;40.90;19.80;;;;;;;-1.80;77.14;101180.30;209659;1314;141848;-84
2022/02/12 21:51:50;;;;;;;37.90;18.90;;;;;;;-1.82;77.12;101173.25;209681;1315;141915;-85
2022/02/12 21:57:01;;;;;;;38.80;19.90;;;;;;;-1.85;76.92;101172.28;209879;1315;140092;-81
2022/02/12 22:02:06;;;;;;;29.50;18.40;;;;;;;-1.86;76.91;101164.23;208733;1315;139939;-78
2022/02/12 22:07:15;;;;;;;31.70;16.60;;;;;;;-1.88;76.62;101159.84;209938;1315;141371;-79
2022/02/12 22:12:19;;;;;;;39.00;18.10;;;;;;;-1.90;76.70;101153.05;209273;1315;141852;-76
2022/02/12 22:17:23;;;;;;;47.60;19.40;;;;;;;-1.90;76.56;101152.51;209538;1314;143530;-73
2022/02/12 22:22:27;;;;;;;20.60;10.40;;;;;;;-1.89;76.48;101150.17;209334;1315;680047;-80
2022/02/12 22:27:32;;;;;;;50.80;22.40;;;;;;;-1.93;76.40;101142.07;209217;1315;140389;-83
2022/02/12 22:32:37;;;;;;;39.50;18.10;;;;;;;-1.95;76.32;101139.30;209560;1315;140941;-76
2022/02/12 22:37:42;;;;;;;39.90;17.00;;;;;;;-1.95;76.28;101137.53;209269;1315;141104;-80
2022/02/12 22:42:52;;;;;;;33.90;17.90;;;;;;;-1.95;76.41;101139.83;207998;1315;141079;-70
2022/02/12 22:48:14;;;;;;;38.10;17.90;;;;;;;-1.95;76.44;101137.52;209413;1315;140584;-80
2022/02/12 22:53:21;;;;;;;41.80;20.90;;;;;;;-1.93;76.25;101129.92;209075;1315;140880;-83
2022/02/12 22:58:35;;;;;;;40.10;19.20;;;;;;;-1.97;76.10;101126.75;209205;1315;141528;-83
2022/02/12 23:03:41;;;;;;;41.50;17.10;;;;;;;-2.00;76.16;101120.36;208974;1315;140897;-77
2022/02/12 23:08:57;;;;;;;28.70;13.90;;;;;;;-1.99;75.99;101119.93;209575;1315;141006;-71
2022/02/12 23:14:04;;;;;;;43.20;16.50;;;;;;;-2.00;75.99;101117.77;209263;1315;142060;-81
2022/02/12 23:19:08;;;;;;;41.80;17.30;;;;;;;-2.02;75.96;101110.73;209636;1315;206535;-83
2022/02/12 23:24:13;;;;;;;32.50;14.90;;;;;;;-2.02;75.73;101103.47;209507;1315;141338;-81
2022/02/12 23:29:18;;;;;;;33.80;17.10;;;;;;;-2.03;75.57;101093.73;208961;1315;140450;-73
2022/02/12 23:34:25;;;;;;;24.30;14.10;;;;;;;-1.97;75.54;101083.67;209445;1315;140416;-80
2022/02/12 23:39:29;;;;;;;32.80;18.20;;;;;;;-1.96;75.27;101074.61;209747;1316;233224;-79
2022/02/12 23:44:37;;;;;;;20.00;12.50;;;;;;;-2.00;75.19;101062.89;209353;1315;141083;-78
2022/02/12 23:49:41;;;;;;;26.10;12.70;;;;;;;-2.07;74.97;101056.41;208733;1315;141081;-83
2022/02/12 23:54:54;;;;;;;32.40;15.00;;;;;;;-2.11;75.08;101050.13;209572;1311;140582;-86
